Time;durP1;ratioP1;P1;durP2;ratioP2;P2;SDS_P1;SDS_P2;PMS_P1;PMS_P2;Temp;Humidity;BMP_temperature;BMP_pressure;BME280_temperature;BME280_humidity;BME280_pressure;Samples;Min_cycle;Max_cycle;Signal;HPM_P1;HPM_P2
2022/09/09 00:00:21;;;;;;;9.05;7.57;;;15.20;99.90;;;;;;5029308;28;20041;-61
2022/09/09 00:03:09;;;;;;;10.80;6.90;;;15.20;99.90;;;;;;5031821;28;20111;-62
2022/09/09 00:05:44;;;;;;;9.10;6.72;;;15.30;99.90;;;;;;5031652;28;20041;-62
2022/09/09 00:08:23;;;;;;;8.98;7.00;;;15.20;99.90;;;;;;5031209;28;20366;-62
2022/09/09 00:10:58;;;;;;;9.57;6.50;;;15.30;99.90;;;;;;5027130;28;20374;-62
2022/09/09 00:13:45;;;;;;;7.93;7.03;;;15.30;99.90;;;;;;5031560;28;20085;-61
2022/09/09 00:16:19;;;;;;;16.35;7.07;;;15.30;99.90;;;;;;5030978;28;20087;-61
2022/09/09 00:19:06;;;;;;;10.82;7.10;;;15.40;99.90;;;;;;5030548;28;20038;-61
2022/09/09 00:21:42;;;;;;;10.40;7.28;;;15.40;99.90;;;;;;5025384;28;20276;-62
2022/09/09 00:24:16;;;;;;;10.25;7.93;;;15.40;99.90;;;;;;5030462;28;20037;-62
2022/09/09 00:26:50;;;;;;;8.70;7.80;;;15.40;99.90;;;;;;5030396;28;20051;-62
2022/09/09 00:29:58;;;;;;;10.98;7.57;;;15.50;99.90;;;;;;5030138;28;20501;-63
2022/09/09 00:32:29;;;;;;;10.48;7.55;;;15.40;99.90;;;;;;5025253;28;20396;-62
2022/09/09 00:35:18;;;;;;;12.18;8.68;;;15.40;99.90;;;;;;5013681;28;20045;-62
2022/09/09 00:37:47;;;;;;;10.30;7.63;;;15.30;99.90;;;;;;5030562;28;20423;-62
2022/09/09 00:40:32;;;;;;;10.20;8.13;;;15.30;99.90;;;;;;5023915;28;20049;-62
2022/09/09 00:43:29;;;;;;;10.18;7.80;;;15.40;99.90;;;;;;5028504;28;20053;-62
2022/09/09 00:46:30;;;;;;;9.95;7.40;;;15.40;99.90;;;;;;5031002;28;20037;-61
2022/09/09 00:49:27;;;;;;;11.40;8.20;;;15.40;99.90;;;;;;5031207;28;20041;-63
2022/09/09 00:51:52;;;;;;;12.75;7.18;;;15.40;99.90;;;;;;5017220;28;20057;-61
2022/09/09 00:54:42;;;;;;;10.40;7.03;;;15.40;99.90;;;;;;5030800;28;20473;-61
2022/09/09 00:57:29;;;;;;;11.60;7.65;;;15.40;99.90;;;;;;5030860;28;20121;-62
2022/09/09 01:00:24;;;;;;;11.73;7.38;;;15.40;99.90;;;;;;5011509;28;20136;-62
2022/09/09 01:02:58;;;;;;;9.43;7.07;;;15.50;99.90;;;;;;5030577;28;20426;-62
2022/09/09 01:05:36;;;;;;;9.05;6.65;;;15.50;99.90;;;;;;5030909;28;20319;-62
2022/09/09 01:08:11;;;;;;;10.60;7.43;;;15.50;99.90;;;;;;5030745;28;20049;-63
2022/09/09 01:10:53;;;;;;;8.07;6.40;;;15.50;99.90;;;;;;5020838;28;20056;-63
2022/09/09 01:13:30;;;;;;;11.80;7.22;;;15.50;99.90;;;;;;5008246;28;20418;-62
2022/09/09 01:16:02;;;;;;;11.27;7.88;;;15.40;99.90;;;;;;5030926;28;20056;-64
2022/09/09 01:18:34;;;;;;;12.43;7.65;;;15.40;99.90;;;;;;5031025;28;20513;-65
2022/09/09 01:21:38;;;;;;;9.93;7.07;;;15.40;99.90;;;;;;5025710;28;20080;-63
2022/09/09 01:24:29;;;;;;;9.63;7.00;;;15.40;99.90;;;;;;5030788;28;20121;-63
2022/09/09 01:27:00;;;;;;;11.32;6.65;;;15.40;99.90;;;;;;5029421;28;20378;-63
2022/09/09 01:29:26;;;;;;;14.05;6.18;;;15.40;99.90;;;;;;5030028;28;20064;-64
2022/09/09 01:31:56;;;;;;;10.73;6.93;;;15.40;99.90;;;;;;5020957;28;20045;-64
2022/09/09 01:34:24;;;;;;;9.32;5.90;;;15.40;99.90;;;;;;5030596;28;20053;-64
2022/09/09 01:37:11;;;;;;;8.05;5.55;;;15.40;99.90;;;;;;5030942;28;20029;-64
2022/09/09 01:39:39;;;;;;;8.45;6.35;;;15.40;99.90;;;;;;5029386;28;20132;-65
2022/09/09 01:42:08;;;;;;;8.15;5.78;;;15.40;99.90;;;;;;5022568;28;20095;-64
2022/09/09 01:44:35;;;;;;;10.75;6.32;;;15.40;99.90;;;;;;5017149;28;20351;-64
2022/09/09 01:47:01;;;;;;;9.23;6.47;;;15.40;99.90;;;;;;5034423;28;20340;-64
2022/09/09 01:49:27;;;;;;;8.45;6.20;;;15.40;99.90;;;;;;5033694;28;20657;-65
2022/09/09 01:51:54;;;;;;;8.93;5.88;;;15.40;99.90;;;;;;5033448;28;20403;-63
2022/09/09 01:54:24;;;;;;;10.90;6.35;;;15.30;99.90;;;;;;5034243;28;20041;-63
2022/09/09 01:57:11;;;;;;;9.95;6.80;;;15.30;99.90;;;;;;5033901;28;20354;-64
2022/09/09 01:59:55;;;;;;;9.27;6.00;;;15.30;99.90;;;;;;5036909;28;20057;-62
2022/09/09 02:02:44;;;;;;;12.02;6.28;;;15.30;99.90;;;;;;5037008;28;20069;-62
2022/09/09 02:05:48;;;;;;;9.32;5.97;;;15.30;99.90;;;;;;5037175;28;20037;-61
2022/09/09 02:08:45;;;;;;;8.32;5.65;;;15.30;99.90;;;;;;5037161;28;20038;-62
2022/09/09 02:11:11;;;;;;;8.65;5.97;;;15.30;99.90;;;;;;5008888;28;20367;-62
2022/09/09 02:13:38;;;;;;;9.20;5.88;;;15.30;99.90;;;;;;5019545;28;20044;-61
2022/09/09 02:16:28;;;;;;;8.00;5.93;;;15.30;99.90;;;;;;5036885;28;20045;-62
2022/09/09 02:18:56;;;;;;;8.77;6.32;;;15.30;99.90;;;;;;5037222;28;20056;-61
2022/09/09 02:21:23;;;;;;;11.20;6.43;;;15.30;99.90;;;;;;5036692;28;20071;-62
2022/09/09 02:23:51;;;;;;;8.00;5.82;;;15.40;99.90;;;;;;5019701;28;20131;-62
2022/09/09 02:26:20;;;;;;;11.15;6.50;;;15.30;99.90;;;;;;5036408;28;20437;-62
2022/09/09 02:28:46;;;;;;;10.25;6.32;;;15.30;99.90;;;;;;5018821;28;20065;-61
2022/09/09 02:31:14;;;;;;;11.57;6.45;;;15.30;99.90;;;;;;5037401;28;20042;-61
2022/09/09 02:33:45;;;;;;;9.38;5.97;;;15.30;99.90;;;;;;5019061;28;20057;-62
2022/09/09 02:36:16;;;;;;;8.35;6.05;;;15.30;99.90;;;;;;5036786;28;20064;-62
2022/09/09 02:38:50;;;;;;;10.00;6.30;;;15.30;99.90;;;;;;5036324;28;20569;-62
2022/09/09 02:41:18;;;;;;;10.73;6.10;;;15.30;99.90;;;;;;5018738;28;20088;-62
2022/09/09 02:43:44;;;;;;;8.35;6.13;;;15.20;99.90;;;;;;5036596;28;20120;-62
2022/09/09 02:46:40;;;;;;;8.85;5.82;;;15.30;99.90;;;;;;5018556;28;20077;-62
2022/09/09 02:49:10;;;;;;;8.07;5.78;;;15.30;99.90;;;;;;5007145;28;20111;-61
2022/09/09 02:51:54;;;;;;;9.13;5.50;;;15.30;99.90;;;;;;5016504;28;20060;-62
2022/09/09 02:54:33;;;;;;;7.95;5.78;;;15.30;99.90;;;;;;5015396;28;20041;-62
2022/09/09 02:57:06;;;;;;;8.93;5.25;;;15.30;99.90;;;;;;5017160;28;20088;-62
2022/09/09 02:59:31;;;;;;;8.30;5.70;;;15.30;99.90;;;;;;5017000;28;20111;-62
2022/09/09 03:01:57;;;;;;;7.97;5.65;;;15.30;99.90;;;;;;5035392;28;20068;-62
2022/09/09 03:04:24;;;;;;;8.15;5.07;;;15.30;99.90;;;;;;5035648;28;20034;-62
2022/09/09 03:06:50;;;;;;;7.88;5.15;;;15.30;99.90;;;;;;5018130;28;20049;-62
2022/09/09 03:09:16;;;;;;;7.95;5.18;;;15.30;99.90;;;;;;5035709;28;20042;-61
2022/09/09 03:11:42;;;;;;;8.90;5.43;;;15.30;99.90;;;;;;5019862;28;20533;-62
2022/09/09 03:14:08;;;;;;;8.32;5.38;;;15.30;99.90;;;;;;4998372;28;20050;-61
2022/09/09 03:16:34;;;;;;;7.68;5.32;;;15.30;99.90;;;;;;5016152;28;20053;-61
2022/09/09 03:19:00;;;;;;;7.75;4.95;;;15.30;99.90;;;;;;5016069;28;20041;-62
2022/09/09 03:21:26;;;;;;;8.57;5.47;;;15.20;99.90;;;;;;5015830;28;20128;-62
2022/09/09 03:23:52;;;;;;;8.18;4.55;;;15.20;99.90;;;;;;5015508;28;20073;-62
2022/09/09 03:26:17;;;;;;;6.68;4.80;;;15.20;99.90;;;;;;4998372;28;20057;-62
2022/09/09 03:28:44;;;;;;;7.32;5.40;;;15.20;99.90;;;;;;4998080;28;20050;-62
2022/09/09 03:31:10;;;;;;;8.35;5.38;;;15.20;99.90;;;;;;5015350;28;20057;-62
2022/09/09 03:33:41;;;;;;;8.10;5.22;;;15.10;99.90;;;;;;5025362;28;20056;-62
2022/09/09 03:36:08;;;;;;;9.93;5.57;;;15.10;99.90;;;;;;5017873;28;20048;-62
2022/09/09 03:38:34;;;;;;;8.20;4.93;;;15.10;99.90;;;;;;5025957;28;20385;-61
2022/09/09 03:41:01;;;;;;;11.15;5.45;;;15.10;99.90;;;;;;4997681;28;20053;-62
2022/09/09 03:43:27;;;;;;;8.35;5.40;;;15.00;99.90;;;;;;5015100;28;20125;-62
2022/09/09 03:45:56;;;;;;;9.63;5.22;;;15.00;99.90;;;;;;5028294;28;20033;-62
2022/09/09 03:48:23;;;;;;;7.18;5.20;;;15.00;99.90;;;;;;5034607;28;20368;-62
2022/09/09 03:50:51;;;;;;;9.35;5.60;;;14.90;99.90;;;;;;5035209;28;20051;-62
2022/09/09 03:53:19;;;;;;;7.97;5.75;;;14.90;99.90;;;;;;5031013;28;20037;-62
2022/09/09 03:55:52;;;;;;;8.10;5.75;;;14.90;99.90;;;;;;4997446;28;20116;-62
2022/09/09 03:58:21;;;;;;;7.43;5.53;;;14.80;99.90;;;;;;5014780;28;20344;-63
2022/09/09 04:01:17;;;;;;;8.55;5.63;;;14.80;99.90;;;;;;5024196;28;20419;-62
2022/09/09 04:03:44;;;;;;;7.65;5.70;;;14.80;99.90;;;;;;5025734;28;20144;-61
2022/09/09 04:06:13;;;;;;;8.52;5.60;;;14.70;99.90;;;;;;5016639;28;20426;-62
2022/09/09 04:08:39;;;;;;;7.43;5.65;;;14.70;99.90;;;;;;5030096;28;20042;-63
2022/09/09 04:11:06;;;;;;;7.07;5.80;;;14.70;99.90;;;;;;4997621;28;20099;-62
2022/09/09 04:13:33;;;;;;;9.45;5.90;;;14.60;99.90;;;;;;5014804;28;20042;-62
2022/09/09 04:16:00;;;;;;;6.57;5.47;;;14.70;99.90;;;;;;5014734;28;20073;-63
2022/09/09 04:18:27;;;;;;;6.90;5.35;;;14.60;99.90;;;;;;5014891;28;20405;-61
2022/09/09 04:20:54;;;;;;;8.38;5.88;;;14.60;99.90;;;;;;5014544;28;20041;-62
2022/09/09 04:23:20;;;;;;;7.20;5.72;;;14.60;99.90;;;;;;5027678;28;20094;-62
2022/09/09 04:25:47;;;;;;;8.95;5.75;;;14.60;99.90;;;;;;5016901;28;20049;-62
2022/09/09 04:28:17;;;;;;;7.25;5.93;;;14.70;99.90;;;;;;5034164;28;20124;-62
2022/09/09 04:30:44;;;;;;;7.07;5.90;;;14.60;99.90;;;;;;5034499;28;20132;-61
2022/09/09 04:33:11;;;;;;;10.15;6.20;;;14.60;99.90;;;;;;5034357;28;20046;-62
2022/09/09 04:35:38;;;;;;;8.73;6.25;;;14.60;99.90;;;;;;5034353;28;20041;-62
2022/09/09 04:38:04;;;;;;;10.02;6.90;;;14.50;99.90;;;;;;5016811;28;20052;-62
2022/09/09 04:40:31;;;;;;;11.43;6.95;;;14.50;99.90;;;;;;5044982;28;20051;-63
2022/09/09 04:43:00;;;;;;;10.73;7.78;;;14.50;99.90;;;;;;5033695;28;20085;-62
2022/09/09 04:45:26;;;;;;;10.25;8.80;;;14.50;99.90;;;;;;5016350;28;20477;-62
2022/09/09 04:47:53;;;;;;;11.02;8.20;;;14.40;99.90;;;;;;5002574;28;20045;-62
2022/09/09 04:50:20;;;;;;;9.55;7.75;;;14.50;99.90;;;;;;5016606;28;20129;-62
2022/09/09 04:52:45;;;;;;;11.73;8.95;;;14.50;99.90;;;;;;5016227;28;20115;-61
2022/09/09 04:55:12;;;;;;;12.43;8.45;;;14.40;99.90;;;;;;5034066;28;20045;-62
2022/09/09 04:57:38;;;;;;;11.43;9.02;;;14.50;99.90;;;;;;5033813;28;20116;-62
2022/09/09 05:00:05;;;;;;;11.52;8.57;;;14.40;99.90;;;;;;5012681;28;20049;-61
2022/09/09 05:02:32;;;;;;;11.70;9.13;;;14.50;99.90;;;;;;5035575;28;20358;-62
2022/09/09 05:04:58;;;;;;;13.35;9.70;;;14.40;99.90;;;;;;5020278;28;20037;-61
2022/09/09 05:07:24;;;;;;;16.20;9.93;;;14.40;99.90;;;;;;5032090;28;20044;-62
2022/09/09 05:09:50;;;;;;;12.63;9.35;;;14.40;99.90;;;;;;4999675;28;20413;-62
2022/09/09 05:12:16;;;;;;;13.88;10.18;;;14.40;99.90;;;;;;5033463;28;20037;-61
2022/09/09 05:14:43;;;;;;;10.45;8.40;;;14.40;99.90;;;;;;5032874;28;20438;-63
2022/09/09 05:17:09;;;;;;;11.85;10.02;;;14.50;99.90;;;;;;5019084;28;20092;-62
2022/09/09 05:19:35;;;;;;;13.27;9.98;;;14.40;99.90;;;;;;5013909;28;20048;-62
2022/09/09 05:22:01;;;;;;;13.43;9.63;;;14.40;99.90;;;;;;5030044;28;20342;-61
2022/09/09 05:24:27;;;;;;;12.73;9.60;;;14.40;99.90;;;;;;5033583;28;20433;-62
2022/09/09 05:26:52;;;;;;;12.23;9.60;;;14.40;99.90;;;;;;5016412;28;20351;-62
2022/09/09 05:29:21;;;;;;;12.95;9.45;;;14.40;99.90;;;;;;5033395;28;20049;-61
2022/09/09 05:31:46;;;;;;;10.55;8.65;;;14.40;99.90;;;;;;5033457;28;20055;-62
2022/09/09 05:34:12;;;;;;;11.95;8.95;;;14.40;99.90;;;;;;5053346;28;20135;-62
2022/09/09 05:36:38;;;;;;;11.35;8.88;;;14.40;99.90;;;;;;5053784;28;20051;-61
2022/09/09 05:39:04;;;;;;;11.15;8.43;;;14.40;99.90;;;;;;5040312;28;20041;-61
2022/09/09 05:41:30;;;;;;;9.40;8.18;;;14.40;99.90;;;;;;5009166;28;20061;-62
2022/09/09 05:43:56;;;;;;;9.65;7.28;;;14.40;99.90;;;;;;5013678;28;20164;-62
2022/09/09 05:46:24;;;;;;;9.23;7.68;;;14.30;99.90;;;;;;5026552;28;20091;-61
2022/09/09 05:48:51;;;;;;;8.93;7.53;;;14.40;99.90;;;;;;5032911;28;20126;-61
2022/09/09 05:51:22;;;;;;;11.95;7.57;;;14.40;99.90;;;;;;5033066;28;20049;-61
2022/09/09 05:53:48;;;;;;;9.75;7.60;;;14.40;99.90;;;;;;5034441;28;20037;-61
2022/09/09 05:56:23;;;;;;;11.25;8.43;;;14.40;99.90;;;;;;5033118;28;20042;-61
2022/09/09 05:58:50;;;;;;;11.52;7.60;;;14.50;99.90;;;;;;5013439;28;20049;-61
2022/09/09 06:01:28;;;;;;;14.02;7.30;;;14.50;99.90;;;;;;4996071;28;20046;-61
2022/09/09 06:03:54;;;;;;;11.48;7.53;;;14.50;99.90;;;;;;5013480;28;20034;-62
2022/09/09 06:06:22;;;;;;;9.50;7.20;;;14.50;99.90;;;;;;5013353;28;20034;-60
2022/09/09 06:08:51;;;;;;;9.75;7.43;;;14.50;99.90;;;;;;5016344;28;20032;-61
2022/09/09 06:11:19;;;;;;;8.38;7.15;;;14.50;99.90;;;;;;5013202;28;20034;-61
2022/09/09 06:13:45;;;;;;;10.07;7.53;;;14.60;99.90;;;;;;5013470;28;20034;-61
2022/09/09 06:16:16;;;;;;;9.15;7.35;;;14.60;99.90;;;;;;5013024;28;20041;-61
2022/09/09 06:18:43;;;;;;;8.70;7.15;;;14.70;99.90;;;;;;4996147;28;20088;-62
2022/09/09 06:21:20;;;;;;;10.65;6.90;;;14.70;99.90;;;;;;5013037;28;20042;-62
2022/09/09 06:23:47;;;;;;;10.80;7.15;;;14.90;99.90;;;;;;4995884;28;20172;-61
2022/09/09 06:26:20;;;;;;;10.23;7.60;;;15.10;99.90;;;;;;5012980;28;20052;-63
2022/09/09 06:28:47;;;;;;;7.65;6.85;;;15.20;99.90;;;;;;5015942;28;20101;-62
2022/09/09 06:31:17;;;;;;;10.73;7.22;;;15.30;99.90;;;;;;5035056;28;20055;-62
2022/09/09 06:33:44;;;;;;;10.00;7.40;;;15.50;99.90;;;;;;5036514;28;20049;-62
2022/09/09 06:36:14;;;;;;;11.23;6.55;;;15.80;99.90;;;;;;5036575;28;20045;-61
2022/09/09 06:38:43;;;;;;;20.48;8.15;;;16.00;99.90;;;;;;5026888;28;20038;-62
2022/09/09 06:41:11;;;;;;;8.30;6.10;;;16.30;99.90;;;;;;5017235;28;20060;-62
2022/09/09 06:43:37;;;;;;;8.45;6.20;;;16.40;99.90;;;;;;5017061;28;20461;-62
2022/09/09 06:46:06;;;;;;;7.32;5.72;;;16.40;99.90;;;;;;5030098;28;20080;-62
2022/09/09 06:48:32;;;;;;;9.15;5.53;;;16.20;99.90;;;;;;5017242;28;20030;-63
2022/09/09 06:51:19;;;;;;;8.73;5.78;;;16.10;99.90;;;;;;5016823;28;20351;-62
2022/09/09 06:53:46;;;;;;;7.57;5.13;;;16.10;99.90;;;;;;5006784;28;20037;-62
2022/09/09 06:56:14;;;;;;;10.40;5.70;;;16.10;99.90;;;;;;5036339;28;20037;-63
2022/09/09 06:58:44;;;;;;;8.20;5.85;;;16.10;99.90;;;;;;5012091;28;20443;-62
2022/09/09 07:01:19;;;;;;;9.70;5.78;;;16.40;99.90;;;;;;4999150;28;20500;-63
2022/09/09 07:03:50;;;;;;;8.63;5.55;;;16.50;99.90;;;;;;5016380;28;20037;-62
2022/09/09 07:06:21;;;;;;;8.55;5.38;;;16.70;99.90;;;;;;5016113;28;20092;-62
2022/09/09 07:08:52;;;;;;;8.85;5.55;;;16.80;99.90;;;;;;5013081;28;20401;-62
2022/09/09 07:11:20;;;;;;;8.68;5.28;;;16.80;99.90;;;;;;5035942;28;20068;-62
2022/09/09 07:13:45;;;;;;;8.13;5.20;;;16.80;99.90;;;;;;5035901;28;20052;-63
2022/09/09 07:16:18;;;;;;;9.20;5.10;;;16.90;99.90;;;;;;5018091;28;20038;-63
2022/09/09 07:18:44;;;;;;;8.55;4.70;;;16.80;99.90;;;;;;5035662;28;20037;-62
2022/09/09 07:21:12;;;;;;;8.80;4.95;;;16.80;99.90;;;;;;5035548;28;20416;-63
2022/09/09 07:23:41;;;;;;;9.57;5.03;;;16.70;99.90;;;;;;5035227;28;20474;-63
2022/09/09 07:26:15;;;;;;;9.23;4.97;;;16.70;99.90;;;;;;5035503;28;20041;-61
2022/09/09 07:28:42;;;;;;;9.05;5.03;;;16.90;99.90;;;;;;5017625;28;20107;-62
2022/09/09 07:31:15;;;;;;;7.72;4.57;;;17.00;99.90;;;;;;5018012;28;20393;-62
2022/09/09 07:33:40;;;;;;;11.37;4.80;;;17.20;99.90;;;;;;5035280;28;20454;-62
2022/09/09 07:36:09;;;;;;;10.15;5.10;;;17.30;99.90;;;;;;5035185;28;20283;-62
2022/09/09 07:38:47;;;;;;;9.00;4.93;;;17.30;99.90;;;;;;5034909;28;20099;-62
2022/09/09 07:41:17;;;;;;;10.68;4.75;;;17.20;99.90;;;;;;5021162;28;20046;-63
2022/09/09 07:43:45;;;;;;;7.47;4.75;;;17.20;99.90;;;;;;5034985;28;20093;-62
2022/09/09 07:46:12;;;;;;;8.27;4.60;;;17.10;99.90;;;;;;5021204;28;20037;-63
2022/09/09 07:48:45;;;;;;;10.23;5.38;;;17.00;99.90;;;;;;5024203;28;20033;-62
2022/09/09 07:51:18;;;;;;;8.93;5.20;;;17.10;99.90;;;;;;5016077;28;20161;-61
2022/09/09 07:53:44;;;;;;;7.57;5.10;;;17.20;99.90;;;;;;5024057;28;20045;-63
2022/09/09 07:56:13;;;;;;;11.38;4.70;;;17.30;99.90;;;;;;5017496;28;20128;-61
2022/09/09 07:58:40;;;;;;;8.98;4.55;;;17.50;99.90;;;;;;5033476;28;20033;-62
2022/09/09 08:01:10;;;;;;;10.73;4.72;;;17.60;99.90;;;;;;5014124;28;20037;-61
2022/09/09 08:03:36;;;;;;;7.88;4.93;;;17.80;99.90;;;;;;5039009;28;20029;-62
2022/09/09 08:06:07;;;;;;;9.13;4.45;;;18.00;99.90;;;;;;4999598;28;20140;-63
2022/09/09 08:08:34;;;;;;;8.77;4.35;;;18.10;99.90;;;;;;5030959;28;20038;-62
2022/09/09 08:11:09;;;;;;;8.77;4.13;;;18.20;99.90;;;;;;5024476;28;20034;-62
2022/09/09 08:13:36;;;;;;;8.15;4.45;;;18.40;99.90;;;;;;5047541;28;20431;-62
2022/09/09 08:16:25;;;;;;;8.25;4.22;;;18.50;99.90;;;;;;5028208;28;20053;-63
2022/09/09 08:18:52;;;;;;;10.60;4.22;;;18.70;99.90;;;;;;5015498;28;20046;-63
2022/09/09 08:21:23;;;;;;;7.50;3.85;;;18.80;99.90;;;;;;5002402;28;20042;-62
2022/09/09 08:23:52;;;;;;;8.32;4.10;;;18.90;99.90;;;;;;5037956;28;20064;-62
2022/09/09 08:26:35;;;;;;;9.38;4.18;;;19.00;99.90;;;;;;5038645;28;20037;-62
2022/09/09 08:29:03;;;;;;;9.23;3.92;;;19.00;99.90;;;;;;5024202;28;20482;-62
2022/09/09 08:31:31;;;;;;;7.55;3.97;;;19.00;99.90;;;;;;4996819;28;20068;-63
2022/09/09 08:34:03;;;;;;;9.23;3.97;;;19.20;99.90;;;;;;5027876;28;20114;-63
2022/09/09 08:36:30;;;;;;;9.20;4.03;;;19.20;99.90;;;;;;5037467;28;20042;-62
2022/09/09 08:38:57;;;;;;;10.50;3.80;;;19.30;99.90;;;;;;5015617;28;20231;-63
2022/09/09 08:41:35;;;;;;;7.28;3.95;;;19.20;99.90;;;;;;5015437;28;20045;-63
2022/09/09 08:44:23;;;;;;;11.20;3.60;;;19.20;99.90;;;;;;5034890;28;20067;-62
2022/09/09 08:46:51;;;;;;;8.23;3.72;;;19.00;99.90;;;;;;5035864;28;20135;-62
2022/09/09 08:49:23;;;;;;;8.63;3.47;;;18.90;99.90;;;;;;5021767;28;20042;-62
2022/09/09 08:51:50;;;;;;;11.40;3.30;;;18.80;99.90;;;;;;5000715;28;20037;-63
2022/09/09 08:54:16;;;;;;;8.10;3.45;;;18.80;99.90;;;;;;5014980;28;20553;-64
2022/09/09 08:56:44;;;;;;;7.53;3.45;;;18.80;99.90;;;;;;5033418;28;20045;-62
2022/09/09 08:59:16;;;;;;;10.07;3.50;;;18.80;99.90;;;;;;5022815;28;20050;-63
2022/09/09 09:02:01;;;;;;;7.55;3.33;;;18.80;99.90;;;;;;5027647;28;20113;-64
2022/09/09 09:05:05;;;;;;;8.18;3.30;;;18.90;99.90;;;;;;5013474;28;20052;-63
2022/09/09 09:07:54;;;;;;;7.03;2.90;;;18.80;99.90;;;;;;5013775;28;20128;-63
2022/09/09 09:10:38;;;;;;;10.38;3.80;;;18.90;99.90;;;;;;5032069;28;20095;-63
2022/09/09 09:13:15;;;;;;;6.95;3.67;;;18.90;99.90;;;;;;5029535;28;20068;-63
2022/09/09 09:15:44;;;;;;;8.45;3.20;;;19.00;99.90;;;;;;5030599;28;20425;-63
2022/09/09 09:18:12;;;;;;;9.13;2.67;;;19.00;99.90;;;;;;5015929;28;20434;-63
2022/09/09 09:21:03;;;;;;;7.72;2.72;;;19.00;99.90;;;;;;5031898;28;20465;-63
2022/09/09 09:23:38;;;;;;;6.40;2.80;;;19.00;99.90;;;;;;5032646;28;20186;-62
2022/09/09 09:26:08;;;;;;;11.07;3.05;;;18.90;99.90;;;;;;5038850;28;20386;-62
2022/09/09 09:28:36;;;;;;;11.90;3.13;;;19.00;99.90;;;;;;5032327;28;20485;-62
2022/09/09 09:31:10;;;;;;;8.75;2.65;;;18.90;99.90;;;;;;5023093;28;20451;-62
2022/09/09 09:33:49;;;;;;;8.23;2.58;;;19.00;99.90;;;;;;5027771;28;20038;-63
2022/09/09 09:36:16;;;;;;;5.57;2.35;;;19.00;99.90;;;;;;5031097;28;20037;-63
2022/09/09 09:38:55;;;;;;;6.95;2.92;;;19.00;99.90;;;;;;5033103;28;20141;-63
2022/09/09 09:41:41;;;;;;;7.35;2.45;;;19.10;99.90;;;;;;5003051;28;20048;-62
2022/09/09 09:44:24;;;;;;;9.52;2.97;;;19.20;99.90;;;;;;5008325;28;20052;-62
2022/09/09 09:46:50;;;;;;;9.60;2.58;;;19.30;99.90;;;;;;5000072;28;20367;-62
2022/09/09 09:49:17;;;;;;;8.55;2.30;;;19.40;99.90;;;;;;5012789;28;20068;-62
2022/09/09 09:51:43;;;;;;;9.07;2.80;;;19.40;99.90;;;;;;5000774;28;20096;-64
2022/09/09 09:54:15;;;;;;;6.00;2.85;;;19.30;99.90;;;;;;5025053;28;20133;-63
2022/09/09 09:56:43;;;;;;;8.82;2.92;;;19.20;99.90;;;;;;5034230;28;20435;-63
2022/09/09 09:59:27;;;;;;;7.63;2.53;;;19.20;99.90;;;;;;5040625;28;20049;-63
2022/09/09 10:01:52;;;;;;;7.75;2.30;;;19.10;99.90;;;;;;5026229;28;20111;-64
2022/09/09 10:04:23;;;;;;;7.03;2.78;;;19.10;99.90;;;;;;5016046;28;20034;-63
2022/09/09 10:06:50;;;;;;;8.55;2.50;;;19.20;99.90;;;;;;5031444;28;20040;-63
2022/09/09 10:09:32;;;;;;;8.30;2.83;;;19.10;99.90;;;;;;5035012;28;20052;-63
2022/09/09 10:12:28;;;;;;;8.07;2.55;;;19.10;99.90;;;;;;5021433;28;20313;-63
2022/09/09 10:15:24;;;;;;;9.73;2.72;;;19.10;99.90;;;;;;5034598;28;20113;-63
2022/09/09 10:18:24;;;;;;;8.73;2.75;;;19.00;99.90;;;;;;5016427;28;20449;-62
2022/09/09 10:21:28;;;;;;;8.05;2.42;;;18.90;99.90;;;;;;5033901;28;20085;-64
2022/09/09 10:24:13;;;;;;;6.00;2.42;;;18.80;99.90;;;;;;5019553;28;20049;-63
2022/09/09 10:26:57;;;;;;;11.07;2.60;;;18.80;99.90;;;;;;5036021;28;20052;-62
2022/09/09 10:29:45;;;;;;;12.60;2.50;;;18.80;99.90;;;;;;5019345;28;20439;-64
2022/09/09 10:32:19;;;;;;;6.45;2.22;;;18.80;99.90;;;;;;5027969;28;20037;-64
2022/09/09 10:34:56;;;;;;;8.02;2.50;;;18.80;99.90;;;;;;5027881;28;20408;-63
2022/09/09 10:37:42;;;;;;;9.27;2.47;;;18.90;99.90;;;;;;5013846;28;20042;-64
2022/09/09 10:40:51;;;;;;;9.25;2.63;;;18.90;99.90;;;;;;5020665;28;20045;-63
2022/09/09 10:43:47;;;;;;;10.95;2.25;;;19.00;99.90;;;;;;5013786;28;20057;-62
2022/09/09 10:46:49;;;;;;;7.05;2.33;;;19.00;99.90;;;;;;5002181;28;20347;-63
2022/09/09 10:49:15;;;;;;;4.97;2.10;;;19.00;99.90;;;;;;5028542;28;20060;-62
2022/09/09 10:51:50;;;;;;;9.07;2.17;;;19.00;99.90;;;;;;5019899;28;20093;-62
2022/09/09 10:54:48;;;;;;;6.65;2.22;;;19.00;99.90;;;;;;5033893;28;20048;-63
2022/09/09 10:57:37;;;;;;;5.85;1.90;;;19.00;99.90;;;;;;4987968;28;20125;-63
2022/09/09 11:00:40;;;;;;;7.88;2.33;;;19.00;99.90;;;;;;5017228;28;20044;-63
2022/09/09 11:03:16;;;;;;;7.72;2.40;;;19.10;99.90;;;;;;5022499;28;20061;-63
2022/09/09 11:05:45;;;;;;;6.78;2.38;;;19.20;99.90;;;;;;5015736;28;20071;-63
2022/09/09 11:08:21;;;;;;;9.43;2.55;;;19.20;99.90;;;;;;5015827;28;20380;-62
2022/09/09 11:11:21;;;;;;;6.38;2.47;;;19.10;99.90;;;;;;5015477;28;20037;-64
2022/09/09 11:14:20;;;;;;;7.55;2.40;;;19.20;99.90;;;;;;5044411;28;20510;-63
2022/09/09 11:17:06;;;;;;;10.35;2.45;;;19.50;99.90;;;;;;5006619;28;20327;-63
2022/09/09 11:19:43;;;;;;;6.85;2.15;;;19.70;99.90;;;;;;5032067;28;20029;-63
2022/09/09 11:22:29;;;;;;;7.00;2.33;;;19.90;99.90;;;;;;5018619;28;20468;-63
2022/09/09 11:25:00;;;;;;;7.10;2.25;;;20.00;99.90;;;;;;5025121;28;20354;-63
2022/09/09 11:27:54;;;;;;;7.38;2.08;;;20.00;99.90;;;;;;5032987;28;20088;-63
2022/09/09 11:30:46;;;;;;;7.80;1.92;;;20.20;99.90;;;;;;5030862;28;20053;-63
2022/09/09 11:33:28;;;;;;;7.95;2.05;;;20.40;99.90;;;;;;5002559;28;20053;-64
2022/09/09 11:36:31;;;;;;;7.85;2.22;;;20.70;99.90;;;;;;5033299;28;20046;-64
2022/09/09 11:39:05;;;;;;;6.10;1.83;;;20.90;99.90;;;;;;5033279;28;20063;-64
2022/09/09 11:41:37;;;;;;;6.82;1.70;;;20.90;99.90;;;;;;5028547;28;20100;-62
2022/09/09 11:44:12;;;;;;;5.68;2.00;;;20.80;99.90;;;;;;5033414;28;20148;-62
2022/09/09 11:46:41;;;;;;;7.53;2.13;;;20.80;99.90;;;;;;5040690;28;20041;-63
2022/09/09 11:49:28;;;;;;;10.70;2.40;;;20.80;99.90;;;;;;5015833;28;20049;-63
2022/09/09 11:51:54;;;;;;;9.68;2.25;;;20.70;99.90;;;;;;5016362;28;20045;-65
2022/09/09 11:54:39;;;;;;;5.82;1.70;;;20.80;99.90;;;;;;5007587;28;20057;-63
2022/09/09 11:57:16;;;;;;;7.10;2.10;;;20.70;99.90;;;;;;5031412;28;20087;-64
2022/09/09 11:59:54;;;;;;;7.72;2.08;;;20.60;99.90;;;;;;5044926;28;20492;-65
2022/09/09 12:02:26;;;;;;;5.18;1.80;;;20.50;99.90;;;;;;5045140;28;20044;-63
2022/09/09 12:05:00;;;;;;;4.38;1.50;;;20.50;99.90;;;;;;5026931;28;20077;-65
2022/09/09 12:07:50;;;;;;;9.27;2.00;;;20.30;99.90;;;;;;5015672;28;20034;-63
2022/09/09 12:10:33;;;;;;;5.90;1.90;;;20.20;99.90;;;;;;5029694;28;20061;-63
2022/09/09 12:13:15;;;;;;;6.63;1.92;;;20.20;99.90;;;;;;5032680;28;20171;-63
2022/09/09 12:15:53;;;;;;;3.05;1.27;;;20.30;99.90;;;;;;5032917;28;20041;-63
2022/09/09 12:18:44;;;;;;;7.80;1.73;;;20.50;99.90;;;;;;5032641;28;20034;-63
2022/09/09 12:21:30;;;;;;;5.85;1.30;;;20.70;99.90;;;;;;5022996;28;20041;-63
2022/09/09 12:23:58;;;;;;;5.93;1.88;;;20.70;99.90;;;;;;5008804;28;20044;-63
2022/09/09 12:26:31;;;;;;;7.07;2.00;;;20.80;99.90;;;;;;5008809;28;20045;-65
2022/09/09 12:29:14;;;;;;;5.30;1.92;;;20.80;99.90;;;;;;5014575;28;20084;-63
2022/09/09 12:31:45;;;;;;;5.82;1.80;;;20.70;99.90;;;;;;4997738;28;20056;-64
2022/09/09 12:34:17;;;;;;;4.78;1.80;;;20.60;99.90;;;;;;5031812;28;20037;-63
2022/09/09 12:36:46;;;;;;;8.35;1.98;;;20.70;99.90;;;;;;5014554;28;20037;-61
2022/09/09 12:39:33;;;;;;;4.63;1.55;;;20.70;99.90;;;;;;5032089;28;20040;-62
2022/09/09 12:41:58;;;;;;;6.22;1.75;;;20.70;99.90;;;;;;5012571;28;20121;-61
2022/09/09 12:44:27;;;;;;;7.18;1.88;;;20.60;99.90;;;;;;5026665;28;20136;-63
2022/09/09 12:46:56;;;;;;;8.98;2.30;;;20.50;99.90;;;;;;5031906;28;20099;-61
2022/09/09 12:49:28;;;;;;;7.20;2.40;;;20.40;99.90;;;;;;5029589;28;20041;-61
2022/09/09 12:51:57;;;;;;;7.65;2.33;;;20.10;99.90;;;;;;5001768;28;20366;-62
2022/09/09 12:54:23;;;;;;;6.47;2.10;;;19.90;99.90;;;;;;5032897;28;20131;-62
2022/09/09 12:56:49;;;;;;;6.95;2.40;;;19.80;99.90;;;;;;5014418;28;20045;-62
2022/09/09 12:59:37;;;;;;;5.75;2.00;;;19.70;99.90;;;;;;5032316;28;20041;-62
2022/09/09 13:02:11;;;;;;;5.07;1.77;;;19.70;99.90;;;;;;5006823;28;20095;-62
2022/09/09 13:04:37;;;;;;;6.18;2.35;;;19.80;99.90;;;;;;5035323;28;20330;-62
2022/09/09 13:07:09;;;;;;;8.05;2.22;;;19.80;99.90;;;;;;5042623;28;20422;-61
2022/09/09 13:09:35;;;;;;;7.30;2.33;;;19.80;99.90;;;;;;5035120;28;20056;-63
2022/09/09 13:12:05;;;;;;;7.80;2.60;;;19.60;99.90;;;;;;5023708;28;20540;-62
2022/09/09 13:14:37;;;;;;;8.68;2.50;;;19.50;99.90;;;;;;5031732;28;20055;-64
2022/09/09 13:17:05;;;;;;;8.10;2.22;;;19.40;99.90;;;;;;5009407;28;20041;-62